Weather & Traffic



KLGB 271353Z 18003KT 4SM BR OVC007 20/18 A2992 RMK AO2 SLP132 T02000178


TAF AMD KLGB 271309Z 2713/2812 VRB05KT 4SM BR BKN008 TEMPO 2713/2716 6SM BR SCT009 FM272000 18006KT P6SM BKN250 FM280100 26010KT 5SM BR SCT010 BKN250 FM280400 VRB05KT 5SM BR BKN009 BKN250 FM280800 VRB05KT P6SM SCT008 BKN250